Time;durP1;ratioP1;P1;durP2;ratioP2;P2;SDS_P1;SDS_P2;PMS_P1;PMS_P2;Temp;Humidity;BMP_temperature;BMP_pressure;BME280_temperature;BME280_humidity;BME280_pressure;Samples;Min_cycle;Max_cycle;Signal;HPM_P1;HPM_P2
2021/08/16 00:01:21;;;;;;;16.45;5.53;;;16.40;81.40;;;;;;4996472;28;20746;-73
2021/08/16 00:03:47;;;;;;;17.48;5.10;;;16.40;81.70;;;;;;4999657;28;20034;-72
2021/08/16 00:06:13;;;;;;;18.88;4.70;;;16.40;81.80;;;;;;4995846;28;20048;-73
2021/08/16 00:08:38;;;;;;;15.50;4.00;;;16.40;81.80;;;;;;4998691;28;20069;-74
2021/08/16 00:11:04;;;;;;;16.02;4.18;;;16.40;81.80;;;;;;4998891;28;20069;-74
2021/08/16 00:13:31;;;;;;;16.98;4.70;;;16.30;82.00;;;;;;4998608;28;20036;-75
2021/08/16 00:15:58;;;;;;;13.88;5.22;;;16.30;82.40;;;;;;5000766;28;20456;-74
2021/08/16 00:18:24;;;;;;;15.45;4.35;;;16.30;82.50;;;;;;4999277;28;20033;-78
2021/08/16 00:20:49;;;;;;;13.85;3.97;;;16.30;82.60;;;;;;5019470;28;20043;-74
2021/08/16 00:23:15;;;;;;;13.98;4.13;;;16.30;82.60;;;;;;5020214;28;21014;-77
2021/08/16 00:25:41;;;;;;;15.90;4.93;;;16.30;82.70;;;;;;5021384;28;20079;-74
2021/08/16 00:28:07;;;;;;;14.60;4.80;;;16.20;82.80;;;;;;5022427;28;20187;-76
2021/08/16 00:30:32;;;;;;;13.38;4.30;;;16.30;82.80;;;;;;5017963;28;20451;-73
2021/08/16 00:32:58;;;;;;;15.05;4.80;;;16.30;82.60;;;;;;5021817;28;20036;-74
2021/08/16 00:35:25;;;;;;;17.83;5.05;;;16.30;82.80;;;;;;5021971;28;20088;-78
2021/08/16 00:37:51;;;;;;;12.05;5.03;;;16.30;82.60;;;;;;5021519;28;20045;-73
2021/08/16 00:40:17;;;;;;;17.33;5.15;;;16.20;82.80;;;;;;5020124;28;20084;-74
2021/08/16 00:42:43;;;;;;;12.77;4.57;;;16.20;82.90;;;;;;5021643;28;20030;-73
2021/08/16 00:45:10;;;;;;;15.27;4.95;;;16.10;82.90;;;;;;5019722;28;20076;-73
2021/08/16 00:47:38;;;;;;;16.98;5.15;;;16.10;83.30;;;;;;5019338;28;20607;-73
2021/08/16 00:50:05;;;;;;;13.18;3.97;;;16.10;83.30;;;;;;5022151;28;20044;-78
2021/08/16 00:52:31;;;;;;;16.00;4.57;;;16.10;83.60;;;;;;5021640;28;20041;-78
2021/08/16 00:54:57;;;;;;;18.77;5.30;;;16.20;83.50;;;;;;5022977;28;20041;-75
2021/08/16 00:57:25;;;;;;;13.95;4.10;;;16.10;83.50;;;;;;5023289;28;20041;-74
2021/08/16 00:59:51;;;;;;;14.43;4.40;;;16.10;83.80;;;;;;5020999;28;20036;-74
2021/08/16 01:02:16;;;;;;;14.52;4.18;;;16.10;84.00;;;;;;5021929;28;20055;-75
2021/08/16 01:04:42;;;;;;;14.68;3.92;;;16.10;84.10;;;;;;5023056;28;20030;-73
2021/08/16 01:07:08;;;;;;;14.07;4.72;;;16.10;84.00;;;;;;5023204;28;20037;-76
2021/08/16 01:09:33;;;;;;;14.20;4.40;;;16.10;83.90;;;;;;5022065;28;20374;-75
2021/08/16 01:11:59;;;;;;;14.02;4.60;;;16.10;84.10;;;;;;5020174;28;20834;-74
2021/08/16 01:14:25;;;;;;;14.63;4.03;;;16.10;84.20;;;;;;5018040;28;20998;-78
2021/08/16 01:16:51;;;;;;;12.32;4.07;;;16.10;84.20;;;;;;5022448;28;20030;-77
2021/08/16 01:19:21;;;;;;;14.23;4.10;;;16.20;84.20;;;;;;5020770;28;20043;-74
2021/08/16 01:21:47;;;;;;;14.07;3.80;;;16.30;84.30;;;;;;5021538;28;20564;-76
2021/08/16 01:24:13;;;;;;;13.95;4.15;;;16.20;84.30;;;;;;5021376;28;20037;-77
2021/08/16 01:26:38;;;;;;;14.57;4.57;;;16.30;84.30;;;;;;5025628;28;20045;-74
2021/08/16 01:29:15;;;;;;;13.95;3.80;;;16.30;84.20;;;;;;5020199;28;20404;-75
2021/08/16 01:31:41;;;;;;;11.77;4.00;;;16.40;84.10;;;;;;5020994;28;20037;-77
2021/08/16 01:34:07;;;;;;;14.23;4.40;;;16.50;84.10;;;;;;5021675;28;20511;-74
2021/08/16 01:36:33;;;;;;;13.30;4.40;;;16.50;83.70;;;;;;5000141;28;20030;-74
2021/08/16 01:38:58;;;;;;;13.98;4.28;;;16.60;83.80;;;;;;5003686;28;20046;-74
2021/08/16 01:41:24;;;;;;;13.77;3.67;;;16.60;83.50;;;;;;5000334;28;20051;-73
2021/08/16 01:43:50;;;;;;;14.85;4.68;;;16.60;83.40;;;;;;5007038;28;20030;-71
2021/08/16 01:46:15;;;;;;;11.85;3.80;;;16.60;83.40;;;;;;4997590;28;20046;-75
2021/08/16 01:48:41;;;;;;;12.05;3.88;;;16.70;83.30;;;;;;5002250;28;20505;-74
2021/08/16 01:51:07;;;;;;;14.85;4.10;;;16.70;83.30;;;;;;4999338;28;20397;-74
2021/08/16 01:53:32;;;;;;;15.45;3.92;;;16.70;83.30;;;;;;5001646;28;20461;-72
2021/08/16 01:55:58;;;;;;;12.43;4.05;;;16.80;83.30;;;;;;4999584;28;20042;-73
2021/08/16 01:58:24;;;;;;;12.35;3.83;;;16.80;83.20;;;;;;5007883;28;20033;-73
2021/08/16 02:00:50;;;;;;;12.90;3.50;;;16.70;83.40;;;;;;4994598;28;20039;-73
2021/08/16 02:03:15;;;;;;;11.57;3.85;;;16.70;83.50;;;;;;5004613;28;20511;-74
2021/08/16 02:05:41;;;;;;;13.38;4.90;;;16.70;83.40;;;;;;4999351;28;20042;-73
2021/08/16 02:08:07;;;;;;;13.27;4.75;;;16.70;83.40;;;;;;4999109;28;20033;-76
2021/08/16 02:10:33;;;;;;;14.15;4.18;;;16.70;83.60;;;;;;5000817;28;20046;-75
2021/08/16 02:12:59;;;;;;;18.27;4.40;;;16.80;83.60;;;;;;5002991;28;20175;-74
2021/08/16 02:15:25;;;;;;;17.27;4.55;;;16.80;83.50;;;;;;5000823;28;20442;-73
2021/08/16 02:17:51;;;;;;;17.10;3.97;;;16.80;83.50;;;;;;4993179;28;20034;-74
2021/08/16 02:20:16;;;;;;;17.83;4.78;;;16.80;83.50;;;;;;4988767;28;20130;-75
2021/08/16 02:22:42;;;;;;;15.35;4.05;;;16.80;83.50;;;;;;4994412;28;20039;-75
2021/08/16 02:25:08;;;;;;;15.05;3.75;;;16.80;83.50;;;;;;4994415;28;20423;-73
2021/08/16 02:27:34;;;;;;;15.40;4.43;;;16.80;83.60;;;;;;4992914;28;20039;-77
2021/08/16 02:29:59;;;;;;;10.48;3.67;;;16.80;83.60;;;;;;5000606;28;20056;-75
2021/08/16 02:32:25;;;;;;;16.02;4.93;;;16.90;83.60;;;;;;5000643;28;20037;-79
2021/08/16 02:34:51;;;;;;;20.00;4.65;;;16.90;83.60;;;;;;4994393;28;20693;-72
2021/08/16 02:37:16;;;;;;;15.75;4.25;;;16.80;83.60;;;;;;5011194;28;20089;-72
2021/08/16 02:39:43;;;;;;;14.10;3.80;;;16.80;83.80;;;;;;4999555;28;20057;-73
2021/08/16 02:42:09;;;;;;;16.10;4.20;;;16.80;83.60;;;;;;4999634;28;20397;-73
2021/08/16 02:44:35;;;;;;;21.13;4.72;;;16.90;83.60;;;;;;5002542;28;20030;-74
2021/08/16 02:47:00;;;;;;;15.30;4.35;;;16.80;83.60;;;;;;4997783;28;20046;-73
2021/08/16 02:49:26;;;;;;;17.27;4.57;;;16.80;83.90;;;;;;4995084;28;20030;-74
2021/08/16 02:51:52;;;;;;;16.33;4.03;;;16.80;84.00;;;;;;4997307;28;20417;-78
2021/08/16 02:54:17;;;;;;;15.55;4.68;;;16.80;83.90;;;;;;4997712;28;20128;-74
2021/08/16 02:56:43;;;;;;;17.33;4.47;;;16.80;83.90;;;;;;4989827;28;20038;-73
2021/08/16 02:59:09;;;;;;;14.68;3.80;;;16.80;83.90;;;;;;5018878;28;20060;-73
2021/08/16 03:01:34;;;;;;;11.90;4.10;;;16.80;84.10;;;;;;5027088;28;20024;-77
2021/08/16 03:04:00;;;;;;;17.48;4.72;;;16.80;84.00;;;;;;5021486;28;20033;-73
2021/08/16 03:06:27;;;;;;;13.75;3.78;;;16.70;84.00;;;;;;5019708;28;20050;-73
2021/08/16 03:08:53;;;;;;;15.02;4.40;;;16.70;84.20;;;;;;4997345;28;20120;-74
2021/08/16 03:11:19;;;;;;;14.88;4.45;;;16.80;84.10;;;;;;4999750;28;20485;-73
2021/08/16 03:13:44;;;;;;;17.67;4.28;;;16.80;84.10;;;;;;5000497;28;20617;-73
2021/08/16 03:16:10;;;;;;;16.08;4.45;;;16.80;84.10;;;;;;4998307;28;20124;-72
2021/08/16 03:18:36;;;;;;;15.88;4.90;;;16.80;84.00;;;;;;4999458;28;20030;-73
2021/08/16 03:21:01;;;;;;;17.95;5.55;;;16.90;84.00;;;;;;5001003;28;20081;-72
2021/08/16 03:23:28;;;;;;;17.90;4.85;;;16.90;84.00;;;;;;4996489;28;20042;-72
2021/08/16 03:25:54;;;;;;;16.67;4.47;;;16.90;83.90;;;;;;4997179;28;20057;-73
2021/08/16 03:28:20;;;;;;;14.13;4.65;;;16.90;83.90;;;;;;4994161;28;20046;-74
2021/08/16 03:30:47;;;;;;;15.80;4.97;;;16.90;84.00;;;;;;4997005;28;20402;-72
2021/08/16 03:33:13;;;;;;;17.85;4.25;;;17.00;84.00;;;;;;4996636;28;20030;-73
2021/08/16 03:35:39;;;;;;;16.60;4.45;;;17.00;83.90;;;;;;4996940;28;20037;-72
2021/08/16 03:38:05;;;;;;;14.95;4.18;;;17.00;83.90;;;;;;4999316;28;20427;-78
2021/08/16 03:40:31;;;;;;;16.38;4.13;;;17.00;83.80;;;;;;5012457;28;20126;-73
2021/08/16 03:42:56;;;;;;;23.58;4.75;;;17.00;83.90;;;;;;5002719;28;20109;-73
2021/08/16 03:45:22;;;;;;;20.45;5.22;;;17.00;83.90;;;;;;5005569;28;20035;-74
2021/08/16 03:47:48;;;;;;;14.23;4.32;;;17.10;83.90;;;;;;4996470;28;20069;-73
2021/08/16 03:50:14;;;;;;;16.42;5.15;;;17.10;83.80;;;;;;5005598;28;20034;-76
2021/08/16 03:52:40;;;;;;;14.93;4.30;;;17.10;83.80;;;;;;5004613;28;20034;-74
2021/08/16 03:55:06;;;;;;;16.70;4.55;;;17.10;83.80;;;;;;5000287;28;20060;-74
2021/08/16 03:57:32;;;;;;;17.13;4.15;;;17.10;83.80;;;;;;5014738;28;20056;-72
2021/08/16 03:59:58;;;;;;;14.32;4.38;;;17.10;83.90;;;;;;5012556;28;20031;-77
2021/08/16 04:02:24;;;;;;;13.95;4.70;;;17.10;83.90;;;;;;5009300;28;20124;-72
2021/08/16 04:04:49;;;;;;;19.00;5.65;;;17.10;83.80;;;;;;5023965;28;20033;-73
2021/08/16 04:07:15;;;;;;;15.00;4.95;;;17.10;83.90;;;;;;5023249;28;20038;-73
2021/08/16 04:09:41;;;;;;;16.13;4.70;;;17.10;83.80;;;;;;5025541;28;20025;-74
2021/08/16 04:12:07;;;;;;;18.08;5.05;;;17.20;83.80;;;;;;5020110;28;20040;-77
2021/08/16 04:14:33;;;;;;;16.90;5.43;;;17.10;83.90;;;;;;5016683;28;20040;-72
2021/08/16 04:16:58;;;;;;;19.13;4.80;;;17.20;83.80;;;;;;5021758;28;20125;-73
2021/08/16 04:19:24;;;;;;;17.42;4.95;;;17.20;83.60;;;;;;5021439;28;20026;-74
2021/08/16 04:21:50;;;;;;;18.67;5.00;;;17.30;83.70;;;;;;5006347;28;20113;-76
2021/08/16 04:24:16;;;;;;;15.43;4.60;;;17.20;83.70;;;;;;5002423;28;20082;-73
2021/08/16 04:26:42;;;;;;;20.13;5.45;;;17.30;83.70;;;;;;5007649;28;20046;-76
2021/08/16 04:29:07;;;;;;;14.40;5.20;;;17.30;83.70;;;;;;5001098;28;20956;-77
2021/08/16 04:31:33;;;;;;;20.05;5.35;;;17.30;83.60;;;;;;5006426;28;20042;-72
2021/08/16 04:33:59;;;;;;;14.77;5.32;;;17.30;83.70;;;;;;5024077;28;20044;-72
2021/08/16 04:36:25;;;;;;;21.88;5.57;;;17.40;83.60;;;;;;5021836;28;20049;-72
2021/08/16 04:38:50;;;;;;;15.40;5.38;;;17.30;83.60;;;;;;5022862;28;20057;-75
2021/08/16 04:41:16;;;;;;;18.70;6.22;;;17.40;83.60;;;;;;5022268;28;20511;-72
2021/08/16 04:43:42;;;;;;;20.73;5.78;;;17.40;83.60;;;;;;5023240;28;20137;-72
2021/08/16 04:46:08;;;;;;;16.08;4.90;;;17.40;83.70;;;;;;5022688;28;20121;-73
2021/08/16 04:48:33;;;;;;;18.15;5.32;;;17.40;83.60;;;;;;5019476;28;20132;-72
2021/08/16 04:50:59;;;;;;;17.63;5.53;;;17.40;83.50;;;;;;5024425;28;20439;-78
2021/08/16 04:53:25;;;;;;;20.38;6.35;;;17.50;83.50;;;;;;5021862;28;21378;-73
2021/08/16 04:55:50;;;;;;;14.52;4.70;;;17.50;83.60;;;;;;5022631;28;20040;-72
2021/08/16 04:58:16;;;;;;;15.85;5.78;;;17.50;83.70;;;;;;5021218;28;20042;-73
2021/08/16 05:00:42;;;;;;;14.25;5.43;;;17.50;83.70;;;;;;5022452;28;20145;-73
2021/08/16 05:03:08;;;;;;;18.08;5.88;;;17.50;83.50;;;;;;5021704;28;20025;-72
2021/08/16 05:05:34;;;;;;;15.70;5.40;;;17.50;83.50;;;;;;5022252;28;20044;-74
2021/08/16 05:08:01;;;;;;;15.60;5.03;;;17.50;83.40;;;;;;5017806;28;20130;-72
2021/08/16 05:10:30;;;;;;;16.05;5.72;;;17.60;83.20;;;;;;5021709;28;20037;-78
2021/08/16 05:12:57;;;;;;;19.27;5.75;;;17.60;83.30;;;;;;5023177;28;20069;-72
2021/08/16 05:15:23;;;;;;;15.75;5.30;;;17.60;83.30;;;;;;5019888;28;20042;-74
2021/08/16 05:17:49;;;;;;;17.85;6.40;;;17.60;83.30;;;;;;5022592;28;20087;-74
2021/08/16 05:20:16;;;;;;;18.00;5.57;;;17.60;83.30;;;;;;5020591;28;20041;-73
2021/08/16 05:22:45;;;;;;;16.88;5.80;;;17.60;83.20;;;;;;5020812;28;20033;-71
2021/08/16 05:25:12;;;;;;;19.40;5.35;;;17.60;83.30;;;;;;5021565;28;20042;-72
2021/08/16 05:27:40;;;;;;;19.55;5.63;;;17.60;83.40;;;;;;5019391;28;20041;-75
2021/08/16 05:30:06;;;;;;;17.50;5.75;;;17.60;83.00;;;;;;5020698;28;20389;-74
2021/08/16 05:32:32;;;;;;;16.27;5.72;;;17.70;83.20;;;;;;5023164;28;20036;-74
2021/08/16 05:34:58;;;;;;;14.82;5.85;;;17.60;83.10;;;;;;5020471;28;20415;-74
2021/08/16 05:37:24;;;;;;;14.50;5.55;;;17.60;83.00;;;;;;5026699;28;20034;-74
2021/08/16 05:39:49;;;;;;;18.08;5.68;;;17.60;83.10;;;;;;5022621;28;20523;-78
2021/08/16 05:42:16;;;;;;;15.80;5.28;;;17.60;83.20;;;;;;5024491;28;20038;-74
2021/08/16 05:44:42;;;;;;;18.30;6.40;;;17.70;83.10;;;;;;5027084;28;21027;-76
2021/08/16 05:47:08;;;;;;;17.92;6.20;;;17.70;83.00;;;;;;5020218;28;20044;-74
2021/08/16 05:49:34;;;;;;;17.40;5.75;;;17.60;83.20;;;;;;5010889;28;20042;-76
2021/08/16 05:52:00;;;;;;;15.05;5.57;;;17.70;83.30;;;;;;4999466;28;21530;-74
2021/08/16 05:54:26;;;;;;;15.60;5.93;;;17.80;83.10;;;;;;4993809;28;20034;-75
2021/08/16 05:56:52;;;;;;;16.60;5.82;;;17.80;83.10;;;;;;4995813;28;20048;-75
2021/08/16 05:59:17;;;;;;;15.27;6.20;;;17.80;83.20;;;;;;4993930;28;20037;-74
2021/08/16 06:01:43;;;;;;;14.45;5.68;;;17.80;83.20;;;;;;4996421;28;20061;-77
2021/08/16 06:04:09;;;;;;;17.27;6.45;;;17.80;83.20;;;;;;4996239;28;20065;-73
2021/08/16 06:06:36;;;;;;;14.23;6.55;;;17.80;83.00;;;;;;5004618;28;20070;-72
2021/08/16 06:09:03;;;;;;;19.85;6.80;;;17.90;83.10;;;;;;4994092;28;20149;-75
2021/08/16 06:11:28;;;;;;;17.02;6.90;;;17.90;83.00;;;;;;4990984;28;20561;-73
2021/08/16 06:13:54;;;;;;;16.13;6.55;;;17.90;82.90;;;;;;4991805;28;20037;-75
2021/08/16 06:16:20;;;;;;;16.67;6.60;;;17.90;83.00;;;;;;4996658;28;20397;-73
2021/08/16 06:18:46;;;;;;;20.60;6.93;;;17.80;83.70;;;;;;4995344;28;20042;-70
2021/08/16 06:21:11;;;;;;;22.35;6.82;;;17.90;83.70;;;;;;5009145;28;20034;-71
2021/08/16 06:23:37;;;;;;;20.15;8.00;;;17.90;84.00;;;;;;4990890;28;20084;-70
2021/08/16 06:26:04;;;;;;;20.00;7.00;;;17.80;84.10;;;;;;5002208;28;20155;-71
2021/08/16 06:28:30;;;;;;;16.65;6.97;;;17.80;84.60;;;;;;4994166;28;20034;-73
2021/08/16 06:30:57;;;;;;;15.30;6.57;;;17.80;85.30;;;;;;4995017;28;20121;-71
2021/08/16 06:33:23;;;;;;;15.98;7.32;;;17.80;85.40;;;;;;5006550;28;20042;-71
2021/08/16 06:35:49;;;;;;;17.30;6.82;;;17.80;85.60;;;;;;5005664;28;20033;-71
2021/08/16 06:38:23;;;;;;;17.25;7.55;;;17.60;85.50;;;;;;5008363;28;20477;-72
2021/08/16 06:40:50;;;;;;;16.77;7.43;;;17.60;86.00;;;;;;5006383;28;20026;-71
2021/08/16 06:43:16;;;;;;;16.92;7.30;;;17.60;86.40;;;;;;4998501;28;20034;-72
2021/08/16 06:45:42;;;;;;;16.38;7.38;;;17.60;86.80;;;;;;4999010;28;20251;-74
2021/08/16 06:48:08;;;;;;;18.05;7.15;;;17.60;87.10;;;;;;4996980;28;20050;-72
2021/08/16 06:50:33;;;;;;;14.80;7.00;;;17.40;87.60;;;;;;5007643;28;20042;-72
2021/08/16 06:52:59;;;;;;;17.08;7.75;;;17.30;87.90;;;;;;5023955;28;20029;-71
2021/08/16 06:55:25;;;;;;;18.75;8.07;;;17.30;88.40;;;;;;5015772;28;20370;-71
2021/08/16 06:57:50;;;;;;;16.92;7.88;;;17.20;88.40;;;;;;5021394;28;20061;-71
2021/08/16 07:00:16;;;;;;;18.05;8.18;;;17.20;88.00;;;;;;5022306;28;20081;-73
2021/08/16 07:02:42;;;;;;;14.43;7.07;;;17.10;88.30;;;;;;5025137;28;20108;-74
2021/08/16 07:05:09;;;;;;;14.10;6.30;;;17.10;88.10;;;;;;5027725;28;20032;-73
2021/08/16 07:07:34;;;;;;;10.95;5.80;;;17.00;87.90;;;;;;5025814;28;20045;-73
2021/08/16 07:10:01;;;;;;;11.10;5.07;;;17.00;87.90;;;;;;5028943;28;20044;-72
2021/08/16 07:12:26;;;;;;;11.82;5.22;;;16.80;87.60;;;;;;5026308;28;20120;-72
2021/08/16 07:14:52;;;;;;;10.13;4.70;;;16.70;87.70;;;;;;5028393;28;20148;-73
2021/08/16 07:17:17;;;;;;;12.60;5.82;;;16.60;87.80;;;;;;5024289;28;20600;-73
2021/08/16 07:19:43;;;;;;;10.95;5.82;;;16.60;87.90;;;;;;5026713;28;20060;-73
2021/08/16 07:22:09;;;;;;;14.60;5.88;;;16.70;87.80;;;;;;5021776;28;20033;-73
2021/08/16 07:24:35;;;;;;;15.18;6.10;;;16.70;87.50;;;;;;5025014;28;20037;-75
2021/08/16 07:27:00;;;;;;;11.68;6.13;;;16.70;87.60;;;;;;5023587;28;20064;-73
2021/08/16 07:29:26;;;;;;;13.27;5.95;;;16.70;87.20;;;;;;5020465;28;20037;-74
2021/08/16 07:31:52;;;;;;;17.02;6.68;;;16.60;86.90;;;;;;5028832;28;20040;-72
2021/08/16 07:34:18;;;;;;;14.98;6.72;;;16.60;87.30;;;;;;5021082;28;20041;-73
2021/08/16 07:36:43;;;;;;;13.45;6.88;;;16.50;86.70;;;;;;5024305;28;20068;-73
2021/08/16 07:39:09;;;;;;;16.17;6.90;;;16.60;86.80;;;;;;5020364;28;20461;-73
2021/08/16 07:41:34;;;;;;;16.02;6.35;;;16.60;85.80;;;;;;5021383;28;20037;-72
2021/08/16 07:44:00;;;;;;;14.35;6.00;;;16.60;85.80;;;;;;5021092;28;20033;-72
2021/08/16 07:46:26;;;;;;;14.43;5.80;;;16.60;85.40;;;;;;5009003;28;20037;-72
2021/08/16 07:48:51;;;;;;;14.52;6.15;;;16.60;84.90;;;;;;5001233;28;20501;-72
2021/08/16 07:51:17;;;;;;;13.85;5.95;;;16.60;84.10;;;;;;5012190;28;20040;-72
2021/08/16 07:53:44;;;;;;;12.13;5.47;;;16.70;84.00;;;;;;5006182;28;20062;-72
2021/08/16 07:56:09;;;;;;;12.73;6.15;;;16.90;83.20;;;;;;5001541;28;20034;-71
2021/08/16 07:58:35;;;;;;;13.82;5.18;;;17.00;82.80;;;;;;5001614;28;20095;-73
2021/08/16 08:01:01;;;;;;;12.07;4.68;;;17.10;81.40;;;;;;5005055;28;20563;-72
2021/08/16 08:03:28;;;;;;;10.13;4.65;;;17.10;80.40;;;;;;5024078;28;20496;-71
2021/08/16 08:05:53;;;;;;;9.55;4.70;;;17.10;78.50;;;;;;5028790;28;20041;-71
2021/08/16 08:08:19;;;;;;;11.48;5.25;;;17.20;78.10;;;;;;5023152;28;20408;-72
2021/08/16 08:10:45;;;;;;;13.50;6.10;;;17.30;77.70;;;;;;5022580;28;20124;-75
2021/08/16 08:13:11;;;;;;;15.13;5.30;;;17.40;78.00;;;;;;5018903;28;20037;-72
2021/08/16 08:15:36;;;;;;;14.05;6.15;;;17.50;77.90;;;;;;5027410;28;20029;-72
2021/08/16 08:18:03;;;;;;;10.85;5.65;;;17.50;76.40;;;;;;5015817;28;20478;-71
2021/08/16 08:20:28;;;;;;;16.10;6.35;;;17.30;77.20;;;;;;5029728;28;20040;-72
2021/08/16 08:22:54;;;;;;;15.80;6.53;;;17.40;76.90;;;;;;5024113;28;20033;-73
2021/08/16 08:25:20;;;;;;;15.35;6.32;;;17.50;77.60;;;;;;5022417;28;20082;-73
2021/08/16 08:27:45;;;;;;;13.60;6.38;;;17.50;76.40;;;;;;5024560;28;20054;-71
2021/08/16 08:30:12;;;;;;;16.15;6.60;;;17.70;77.30;;;;;;5011206;28;20045;-71
2021/08/16 08:32:55;;;;;;;13.88;6.97;;;18.00;76.10;;;;;;5024655;28;20053;-72
2021/08/16 08:35:21;;;;;;;15.48;7.63;;;17.90;74.60;;;;;;5019723;28;21019;-71
2021/08/16 08:37:48;;;;;;;17.48;8.07;;;17.90;75.10;;;;;;5025226;28;20087;-72
2021/08/16 08:40:14;;;;;;;15.20;8.10;;;17.90;74.70;;;;;;5002510;28;20111;-72
2021/08/16 08:42:41;;;;;;;14.82;8.27;;;18.00;73.50;;;;;;5011090;28;20045;-73
2021/08/16 08:45:08;;;;;;;20.45;8.95;;;18.10;73.90;;;;;;5016071;28;20500;-74
2021/08/16 08:47:34;;;;;;;17.45;9.07;;;18.00;72.70;;;;;;5012515;28;20156;-71
2021/08/16 08:50:01;;;;;;;18.00;10.07;;;18.10;73.90;;;;;;5015354;28;20042;-71
2021/08/16 08:52:27;;;;;;;19.15;11.05;;;18.40;72.90;;;;;;5014663;28;20402;-72
2021/08/16 08:54:57;;;;;;;22.55;11.38;;;18.60;72.40;;;;;;5017800;28;20369;-73
2021/08/16 08:57:23;;;;;;;23.45;12.35;;;18.60;71.40;;;;;;5012622;28;20038;-71
2021/08/16 08:59:48;;;;;;;25.25;13.27;;;18.60;71.90;;;;;;5015516;28;20030;-71
2021/08/16 09:02:14;;;;;;;22.77;13.52;;;18.50;70.10;;;;;;5017677;28;20103;-74
2021/08/16 09:04:56;;;;;;;23.08;14.02;;;18.50;70.20;;;;;;5015769;28;20033;-73
2021/08/16 09:07:36;;;;;;;23.25;14.10;;;18.60;69.70;;;;;;5014218;28;20045;-75
2021/08/16 09:10:13;;;;;;;26.17;15.25;;;18.60;70.40;;;;;;5032551;28;20035;-70
2021/08/16 09:12:40;;;;;;;23.17;15.23;;;18.60;69.90;;;;;;5014526;28;20556;-71
2021/08/16 09:15:18;;;;;;;24.63;16.40;;;18.50;69.40;;;;;;5013345;28;20045;-75
2021/08/16 09:17:45;;;;;;;28.27;17.92;;;18.60;69.60;;;;;;5028653;28;20044;-75
2021/08/16 09:20:19;;;;;;;29.80;17.52;;;18.70;67.60;;;;;;5020281;28;20453;-71
2021/08/16 09:23:01;;;;;;;26.73;17.92;;;18.70;67.80;;;;;;5019268;28;20148;-71
2021/08/16 09:25:34;;;;;;;32.33;19.08;;;18.80;68.10;;;;;;5023505;28;20073;-72
2021/08/16 09:28:00;;;;;;;26.92;17.23;;;19.10;68.10;;;;;;5022896;28;20037;-72
2021/08/16 09:30:34;;;;;;;29.83;19.50;;;19.40;66.10;;;;;;5036487;28;20029;-76
2021/08/16 09:33:18;;;;;;;25.27;19.48;;;19.30;64.10;;;;;;5026181;28;20030;-71
2021/08/16 09:35:54;;;;;;;28.73;19.55;;;19.40;64.50;;;;;;5027101;28;20043;-73
2021/08/16 09:38:35;;;;;;;28.27;21.25;;;19.20;63.60;;;;;;5026930;28;20041;-72
2021/08/16 09:41:03;;;;;;;26.67;19.73;;;19.10;63.10;;;;;;5006555;28;20715;-75
2021/08/16 09:43:29;;;;;;;31.67;21.33;;;19.40;62.10;;;;;;5004851;28;20534;-75
2021/08/16 09:45:55;;;;;;;29.63;22.00;;;19.30;63.40;;;;;;5007967;28;20034;-76
2021/08/16 09:48:24;;;;;;;32.92;21.90;;;19.50;63.50;;;;;;4997390;28;20046;-75
2021/08/16 09:50:58;;;;;;;33.05;23.38;;;19.20;62.70;;;;;;4998282;28;20075;-75
2021/08/16 09:53:51;;;;;;;32.70;23.40;;;19.40;63.20;;;;;;4977513;28;20484;-74
2021/08/16 10:03:13;;;;;;;36.00;24.77;;;20.10;61.30;;;;;;5012754;28;20040;-77
2021/08/16 10:05:41;;;;;;;35.28;25.73;;;19.60;62.30;;;;;;5006038;28;20129;-74
2021/08/16 10:08:09;;;;;;;34.17;25.33;;;19.40;62.70;;;;;;5004516;28;20046;-72
2021/08/16 10:10:36;;;;;;;34.80;24.98;;;19.60;62.60;;;;;;5034306;28;20025;-72
2021/08/16 10:13:03;;;;;;;32.90;23.58;;;19.80;62.00;;;;;;5021815;28;20021;-72
2021/08/16 10:15:32;;;;;;;38.22;24.42;;;19.70;60.60;;;;;;5028898;28;20120;-72
2021/08/16 10:17:58;;;;;;;35.92;25.33;;;19.50;60.00;;;;;;5027005;28;20072;-73
2021/08/16 10:20:28;;;;;;;35.15;25.63;;;19.50;61.50;;;;;;5021783;28;20400;-73
2021/08/16 10:22:54;;;;;;;34.85;25.40;;;19.50;61.80;;;;;;5023899;28;20041;-73
2021/08/16 10:25:20;;;;;;;34.22;26.13;;;19.40;61.70;;;;;;5022248;28;20034;-72
2021/08/16 10:27:46;;;;;;;36.28;25.42;;;19.40;62.80;;;;;;5016059;28;20033;-72
2021/08/16 10:30:14;;;;;;;33.90;25.40;;;20.00;61.80;;;;;;4995318;28;20048;-73
2021/08/16 10:32:40;;;;;;;34.85;25.13;;;20.60;61.10;;;;;;4997475;28;20026;-76
2021/08/16 10:35:13;;;;;;;31.70;24.00;;;21.00;59.90;;;;;;4994823;28;20055;-73
2021/08/16 10:37:41;;;;;;;32.65;23.65;;;20.90;57.90;;;;;;5007587;28;20030;-72
2021/08/16 10:40:25;;;;;;;32.85;23.88;;;20.60;59.10;;;;;;4994089;28;20034;-76
2021/08/16 10:42:54;;;;;;;39.20;26.38;;;20.10;60.60;;;;;;5004623;28;20518;-73
2021/08/16 10:45:30;;;;;;;35.90;24.70;;;19.80;61.20;;;;;;4990792;28;20038;-76
2021/08/16 10:48:04;;;;;;;30.10;22.05;;;19.90;62.10;;;;;;4997829;28;20517;-73
2021/08/16 10:50:30;;;;;;;29.92;21.30;;;19.90;59.70;;;;;;5013493;28;20044;-75
2021/08/16 10:53:09;;;;;;;32.90;22.55;;;19.60;60.30;;;;;;4989179;28;20034;-72
2021/08/16 10:55:40;;;;;;;31.98;21.80;;;19.50;61.50;;;;;;5002643;28;20119;-72
2021/08/16 10:58:10;;;;;;;32.22;21.13;;;19.30;62.50;;;;;;5011524;28;20556;-72
2021/08/16 11:00:38;;;;;;;27.67;19.05;;;19.00;62.10;;;;;;5001266;28;20033;-76
2021/08/16 11:03:04;;;;;;;29.60;20.85;;;18.70;62.00;;;;;;5012226;28;20512;-72
2021/08/16 11:05:35;;;;;;;30.35;21.35;;;18.60;63.60;;;;;;5003521;28;20039;-72
2021/08/16 11:08:03;;;;;;;28.05;18.63;;;18.60;64.30;;;;;;5013647;28;20037;-75
2021/08/16 11:10:49;;;;;;;30.90;20.52;;;18.60;63.60;;;;;;5006057;28;20037;-72
2021/08/16 11:13:22;;;;;;;28.48;18.98;;;18.60;64.40;;;;;;5010709;28;20329;-74
2021/08/16 11:15:49;;;;;;;26.45;19.92;;;18.60;64.70;;;;;;5003527;28;20120;-73
2021/08/16 11:18:20;;;;;;;29.85;20.45;;;18.40;64.00;;;;;;4994178;28;20565;-71
2021/08/16 11:20:55;;;;;;;31.00;21.63;;;18.30;64.80;;;;;;5001557;28;20034;-74
2021/08/16 11:23:21;;;;;;;31.65;20.23;;;18.10;64.90;;;;;;4997170;28;20056;-76
2021/08/16 11:25:55;;;;;;;28.88;19.55;;;18.20;65.00;;;;;;4998476;28;20065;-73
2021/08/16 11:28:26;;;;;;;31.73;20.48;;;18.30;65.00;;;;;;4999988;28;20053;-72
2021/08/16 11:31:02;;;;;;;33.67;21.67;;;18.50;65.00;;;;;;5015228;28;20052;-72
2021/08/16 11:33:29;;;;;;;31.45;21.05;;;18.40;64.60;;;;;;5019326;28;20113;-72
2021/08/16 11:36:05;;;;;;;28.85;19.80;;;18.30;65.50;;;;;;5020493;28;20569;-73
2021/08/16 11:38:31;;;;;;;28.80;20.73;;;18.20;64.90;;;;;;5019409;28;20480;-76
2021/08/16 11:41:07;;;;;;;31.38;22.13;;;18.10;65.90;;;;;;5023042;28;20052;-72
2021/08/16 11:43:33;;;;;;;31.52;21.08;;;18.10;66.40;;;;;;5023454;28;20068;-71
2021/08/16 11:46:15;;;;;;;35.13;20.65;;;18.10;66.40;;;;;;5023615;28;20029;-76
2021/08/16 11:48:49;;;;;;;30.08;20.25;;;18.20;66.80;;;;;;5021353;28;20088;-73
2021/08/16 11:51:15;;;;;;;30.42;21.23;;;18.30;65.60;;;;;;5021690;28;20041;-71
2021/08/16 11:53:43;;;;;;;29.48;19.38;;;18.50;66.70;;;;;;5023269;28;20044;-73
2021/08/16 11:56:09;;;;;;;31.50;20.67;;;18.60;65.90;;;;;;5024529;28;20480;-72
2021/08/16 11:58:36;;;;;;;28.45;19.35;;;18.60;64.60;;;;;;5031152;28;20033;-73
2021/08/16 12:01:04;;;;;;;31.67;20.35;;;18.60;65.80;;;;;;5032435;28;20112;-76
2021/08/16 12:03:30;;;;;;;28.48;19.20;;;18.80;64.20;;;;;;5027989;28;20116;-73
2021/08/16 12:05:56;;;;;;;28.08;18.65;;;19.00;63.70;;;;;;5018877;28;20045;-75
2021/08/16 12:08:22;;;;;;;29.77;19.13;;;19.20;63.50;;;;;;5028233;28;20049;-71
2021/08/16 12:10:48;;;;;;;27.90;17.98;;;19.50;64.00;;;;;;5026686;28;20490;-71
2021/08/16 12:13:14;;;;;;;31.75;19.27;;;19.50;62.00;;;;;;5020845;28;20401;-72
2021/08/16 12:15:44;;;;;;;30.73;19.45;;;19.40;63.00;;;;;;5020626;28;20040;-71
2021/08/16 12:18:10;;;;;;;31.10;20.13;;;19.50;63.00;;;;;;5025544;28;20039;-73
2021/08/16 12:21:02;;;;;;;31.40;19.30;;;19.40;64.10;;;;;;5024736;28;20120;-74
2021/08/16 12:23:35;;;;;;;28.75;18.90;;;19.90;63.50;;;;;;5023354;28;20072;-71
2021/08/16 12:26:03;;;;;;;27.10;18.40;;;19.90;62.40;;;;;;5022107;28;20049;-76
2021/08/16 12:28:44;;;;;;;29.52;18.27;;;19.80;60.70;;;;;;5020388;28;20038;-72
2021/08/16 12:31:18;;;;;;;27.95;19.27;;;19.70;61.50;;;;;;5024104;28;20473;-72
2021/08/16 12:34:00;;;;;;;28.13;19.70;;;19.50;61.60;;;;;;5013051;28;20103;-72
2021/08/16 12:36:37;;;;;;;27.48;17.00;;;19.60;63.00;;;;;;5018304;28;20629;-72
2021/08/16 12:39:08;;;;;;;32.08;19.40;;;19.60;61.20;;;;;;5014828;28;20041;-73
2021/08/16 12:41:34;;;;;;;25.98;19.10;;;19.50;62.30;;;;;;5016390;28;20120;-72